Bronson, Florida
Current Conditions -  °F | °C
As of 6:53 AM on Sunday 21 Dec 2014 (Local Time) from KGNV Reporting Station
Haze Haze  
Wind Chill: 58°   Ceiling: 200
Heat Index: 58°   Visibility: 1.7mi
Dew Point: 58°   Wind: 5mph
Humidity: 100%   Direction: 80°E
Pressure: 30.1"   Gusts: NA
Location:  29.45°N, 82.64°W
Report Text: KGNV 211153Z AUTO 08004KT 1 3/4SM BR OVC002 14/14 A3010 RMK AO2 SLP191 70001 T01440144 10150 20144 53007
Loading
Personal Weather Stations






























Interactive Weather Map New forecast layout! Learn more

10-Day Weather Forecast

Advertisements
Track Severe Weather on mobile